Time,TemperatureF,DewpointF,PressureIn,WindDirection,WindDirectionDegrees,WindSpeedMPH,WindSpeedGustMPH,Humidity,HourlyPrecipIn,Conditions,Clouds,dailyrainin,SolarRadiationWatts/m^2,SoftwareType,DateUTC
2013-03-10 00:01:00,27.0,20.0,-100.00,NNW,328,2.0,4.0,73,-99.99,,,0.00,0.120000,,2013-03-10 07:01:00,
2013-03-10 00:11:00,27.0,20.0,-100.00,NNW,328,2.0,4.0,73,-99.99,,,0.00,0.120000,,2013-03-10 07:11:00,
2013-03-10 00:31:00,26.0,20.0,-100.00,NNE,19,1.0,2.0,77,-99.99,,,-99.99,0.120000,,2013-03-10 07:31:00,
2013-03-10 00:42:00,26.0,20.0,-100.00,NNE,19,1.0,2.0,77,-99.99,,,-99.99,0.120000,,2013-03-10 07:42:00,
2013-03-10 00:52:00,26.0,20.0,-100.00,NNE,19,1.0,2.0,77,-99.99,,,-99.99,0.120000,,2013-03-10 07:52:00,
2013-03-10 01:01:00,26.0,20.0,-100.00,NNE,19,1.0,2.0,77,-99.99,,,-99.99,0.120000,,2013-03-10 08:01:00,
2013-03-10 01:11:00,26.0,20.0,-100.00,NNE,19,1.0,2.0,77,-99.99,,,-99.99,0.120000,,2013-03-10 08:11:00,
2013-03-10 01:42:00,22.0,18.0,-100.00,WNW,283,3.0,4.0,86,-99.99,,,0.00,0.120000,,2013-03-10 08:42:00,
2013-03-10 01:51:00,22.0,18.0,-100.00,WNW,283,3.0,4.0,86,-99.99,,,0.00,0.120000,,2013-03-10 08:51:00,
2013-03-10 03:01:00,22.0,18.0,-100.00,WNW,283,3.0,4.0,86,-99.99,,,0.00,0.120000,,2013-03-10 09:01:00,
2013-03-10 03:11:00,22.0,18.0,-100.00,WNW,283,3.0,4.0,86,-99.99,,,0.00,0.120000,,2013-03-10 09:11:00,
2013-03-10 03:30:00,21.0,18.0,-100.00,West,270,3.0,5.0,87,-99.99,,,0.00,0.120000,,2013-03-10 09:30:00,
2013-03-10 03:42:00,21.0,18.0,-100.00,West,270,3.0,5.0,87,-99.99,,,0.00,0.120000,,2013-03-10 09:42:00,
2013-03-10 03:51:00,21.0,18.0,-100.00,West,270,3.0,5.0,87,-99.99,,,0.00,0.120000,,2013-03-10 09:51:00,
2013-03-10 04:01:00,21.0,18.0,-100.00,West,270,3.0,5.0,87,-99.99,,,0.00,0.120000,,2013-03-10 10:01:00,
2013-03-10 04:11:00,21.0,18.0,-100.00,West,270,3.0,5.0,87,-99.99,,,0.00,0.120000,,2013-03-10 10:11:00,
2013-03-10 04:21:00,21.0,18.0,-100.00,West,270,3.0,5.0,87,-99.99,,,0.00,0.120000,,2013-03-10 10:21:00,
2013-03-10 04:41:00,21.0,18.0,-100.00,WSW,254,3.0,5.0,86,-99.99,,,0.00,0.120000,,2013-03-10 10:41:00,
2013-03-10 04:52:00,21.0,18.0,-100.00,WSW,254,3.0,5.0,86,-99.99,,,0.00,0.120000,,2013-03-10 10:52:00,
2013-03-10 05:01:00,21.0,18.0,-100.00,WSW,254,3.0,5.0,86,-99.99,,,0.00,0.120000,,2013-03-10 11:01:00,
2013-03-10 05:11:00,21.0,18.0,-100.00,WSW,254,3.0,5.0,86,-99.99,,,0.00,0.120000,,2013-03-10 11:11:00,
2013-03-10 05:42:00,18.0,14.0,-100.00,South,184,3.0,4.0,85,-99.99,,,0.00,0.120000,,2013-03-10 11:42:00,
2013-03-10 05:52:00,18.0,14.0,-100.00,South,184,3.0,4.0,85,-99.99,,,0.00,0.120000,,2013-03-10 11:52:00,
2013-03-10 06:01:00,18.0,14.0,-100.00,South,184,3.0,4.0,85,-99.99,,,0.00,0.120000,,2013-03-10 12:01:00,
2013-03-10 06:11:00,18.0,14.0,-100.00,South,184,3.0,4.0,85,-99.99,,,0.00,0.120000,,2013-03-10 12:11:00,
2013-03-10 06:42:00,15.0,12.0,-100.00,SW,227,2.0,3.0,88,-99.99,,,0.00,0.120000,,2013-03-10 12:42:00,
2013-03-10 07:11:00,15.0,12.0,-100.00,SW,227,2.0,3.0,88,-99.99,,,0.00,0.120000,,2013-03-10 13:11:00,
2013-03-10 07:41:00,19.0,16.0,-100.00,West,267,3.0,4.0,85,-99.99,,,0.00,0.120000,,2013-03-10 13:41:00,
2013-03-10 07:52:00,19.0,16.0,-100.00,West,267,3.0,4.0,85,-99.99,,,0.00,0.120000,,2013-03-10 13:52:00,
2013-03-10 08:01:00,19.0,16.0,-100.00,West,267,3.0,4.0,85,-99.99,,,0.00,0.120000,,2013-03-10 14:01:00,
2013-03-10 08:11:00,19.0,16.0,-100.00,West,267,3.0,4.0,85,-99.99,,,0.00,0.120000,,2013-03-10 14:11:00,
2013-03-10 08:41:00,17.0,14.0,-100.00,SW,223,1.0,3.0,87,-99.99,,,0.00,15.220000,,2013-03-10 14:41:00,
2013-03-10 08:52:00,17.0,14.0,-100.00,SW,223,1.0,3.0,87,-99.99,,,0.00,15.220000,,2013-03-10 14:52:00,
2013-03-10 09:01:00,17.0,14.0,-100.00,SW,223,1.0,3.0,87,-99.99,,,0.00,15.220000,,2013-03-10 15:01:00,
2013-03-10 09:11:00,17.0,14.0,-100.00,SW,223,1.0,3.0,87,-99.99,,,0.00,15.220000,,2013-03-10 15:11:00,
2013-03-10 09:42:00,21.0,17.0,-100.00,SSE,166,5.0,7.0,86,-99.99,,,0.00,139.809998,,2013-03-10 15:42:00,
2013-03-10 09:52:00,21.0,17.0,-100.00,SSE,166,5.0,7.0,86,-99.99,,,0.00,139.809998,,2013-03-10 15:52:00,
2013-03-10 10:01:00,21.0,17.0,-100.00,SSE,166,5.0,7.0,86,-99.99,,,0.00,139.809998,,2013-03-10 16:01:00,
2013-03-10 10:11:00,21.0,17.0,-100.00,SSE,166,5.0,7.0,86,-99.99,,,0.00,139.809998,,2013-03-10 16:11:00,
2013-03-10 12:41:00,37.0,19.0,-100.00,SW,218,1.0,4.0,48,-99.99,,,0.00,641.530029,,2013-03-10 18:41:00,
2013-03-10 12:52:00,37.0,19.0,-100.00,SW,218,1.0,4.0,48,-99.99,,,0.00,641.530029,,2013-03-10 18:52:00,
2013-03-10 13:01:00,37.0,19.0,-100.00,SW,218,1.0,4.0,48,-99.99,,,0.00,641.530029,,2013-03-10 19:01:00,
2013-03-10 13:11:00,37.0,19.0,-100.00,SW,218,1.0,4.0,48,-99.99,,,0.00,641.530029,,2013-03-10 19:11:00,
2013-03-10 13:42:00,40.0,18.0,-100.00,NNW,345,4.0,9.0,41,-99.99,,,0.00,703.599976,,2013-03-10 19:42:00,
2013-03-10 13:53:00,40.0,18.0,-100.00,NNW,345,4.0,9.0,41,-99.99,,,0.00,703.599976,,2013-03-10 19:53:00,
2013-03-10 14:02:00,40.0,18.0,-100.00,NNW,345,4.0,9.0,41,-99.99,,,0.00,703.599976,,2013-03-10 20:02:00,
2013-03-10 14:12:00,40.0,18.0,-100.00,NNW,345,4.0,9.0,41,-99.99,,,0.00,703.599976,,2013-03-10 20:12:00,
2013-03-10 14:42:00,43.0,18.0,-100.00,NNE,21,6.0,12.0,35,-99.99,,,0.00,699.059998,,2013-03-10 20:42:00,
2013-03-10 14:53:00,43.0,18.0,-100.00,NNE,21,6.0,12.0,35,-99.99,,,0.00,699.059998,,2013-03-10 20:53:00,
2013-03-10 15:02:00,43.0,18.0,-100.00,NNE,21,6.0,12.0,35,-99.99,,,0.00,699.059998,,2013-03-10 21:02:00,
2013-03-10 15:12:00,43.0,18.0,-100.00,NNE,21,6.0,12.0,35,-99.99,,,0.00,699.059998,,2013-03-10 21:12:00,
2013-03-10 15:42:00,44.0,17.0,-100.00,NNE,28,3.0,8.0,32,-99.99,,,0.00,578.080017,,2013-03-10 21:42:00,
2013-03-10 15:52:00,44.0,17.0,-100.00,NNE,28,3.0,8.0,32,-99.99,,,0.00,578.080017,,2013-03-10 21:52:00,
2013-03-10 16:02:00,44.0,17.0,-100.00,NNE,28,3.0,8.0,32,-99.99,,,0.00,578.080017,,2013-03-10 22:02:00,
2013-03-10 16:12:00,44.0,17.0,-100.00,NNE,28,3.0,8.0,32,-99.99,,,0.00,578.080017,,2013-03-10 22:12:00,
2013-03-10 16:42:00,45.0,17.0,-100.00,NNE,25,5.0,9.0,31,-99.99,,,0.00,393.640015,,2013-03-10 22:42:00,
2013-03-10 16:53:00,45.0,17.0,-100.00,NNE,25,5.0,9.0,31,-99.99,,,0.00,393.640015,,2013-03-10 22:53:00,
2013-03-10 17:02:00,45.0,17.0,-100.00,NNE,25,5.0,9.0,31,-99.99,,,0.00,393.640015,,2013-03-10 23:02:00,
2013-03-10 17:12:00,45.0,17.0,-100.00,NNE,25,5.0,9.0,31,-99.99,,,0.00,393.640015,,2013-03-10 23:12:00,
2013-03-10 17:32:00,45.0,17.0,-100.00,NNE,20,7.0,11.0,32,-99.99,,,0.00,238.130005,,2013-03-10 23:32:00,
2013-03-10 17:42:00,45.0,17.0,-100.00,NNE,20,7.0,11.0,32,-99.99,,,0.00,238.130005,,2013-03-10 23:42:00,
2013-03-10 17:52:00,45.0,17.0,-100.00,NNE,20,7.0,11.0,32,-99.99,,,0.00,238.130005,,2013-03-10 23:52:00,
2013-03-10 18:02:00,45.0,17.0,-100.00,NNE,20,7.0,11.0,32,-99.99,,,0.00,238.130005,,2013-03-11 00:02:00,
2013-03-10 18:12:00,45.0,17.0,-100.00,NNE,20,7.0,11.0,32,-99.99,,,0.00,238.130005,,2013-03-11 00:12:00,
2013-03-10 18:42:00,44.0,18.0,-100.00,ENE,69,7.0,9.0,34,-99.99,,,0.00,84.839996,,2013-03-11 00:42:00,
2013-03-10 18:53:00,44.0,18.0,-100.00,ENE,69,7.0,9.0,34,-99.99,,,0.00,84.839996,,2013-03-11 00:53:00,
2013-03-10 19:02:00,44.0,18.0,-100.00,ENE,69,7.0,9.0,34,-99.99,,,0.00,84.839996,,2013-03-11 01:02:00,
2013-03-10 19:12:00,44.0,18.0,-100.00,ENE,69,7.0,9.0,34,-99.99,,,0.00,84.839996,,2013-03-11 01:12:00,
2013-03-10 19:32:00,41.0,19.0,-100.00,ESE,121,5.0,9.0,39,-99.99,,,0.00,12.670000,,2013-03-11 01:32:00,
2013-03-10 19:42:00,41.0,19.0,-100.00,ESE,121,5.0,9.0,39,-99.99,,,0.00,12.670000,,2013-03-11 01:42:00,
2013-03-10 20:02:00,41.0,19.0,-100.00,ESE,121,5.0,9.0,39,-99.99,,,0.00,12.670000,,2013-03-11 02:02:00,
2013-03-10 20:12:00,41.0,19.0,-100.00,ESE,121,5.0,9.0,39,-99.99,,,0.00,12.670000,,2013-03-11 02:12:00,
2013-03-10 20:42:00,40.0,20.0,-100.00,ENE,62,5.0,11.0,42,-99.99,,,0.00,0.120000,,2013-03-11 02:42:00,
2013-03-10 20:52:00,40.0,20.0,-100.00,ENE,62,5.0,11.0,42,-99.99,,,0.00,0.120000,,2013-03-11 02:52:00,
2013-03-10 21:02:00,40.0,20.0,-100.00,ENE,62,5.0,11.0,42,-99.99,,,0.00,0.120000,,2013-03-11 03:02:00,
2013-03-10 21:12:00,40.0,20.0,-100.00,ENE,62,5.0,11.0,42,-99.99,,,0.00,0.120000,,2013-03-11 03:12:00,
2013-03-10 21:42:00,39.0,24.0,-100.00,ENE,76,10.0,28.0,54,-99.99,,,0.00,0.120000,,2013-03-11 03:42:00,
2013-03-10 21:52:00,39.0,24.0,-100.00,ENE,76,10.0,28.0,54,-99.99,,,0.00,0.120000,,2013-03-11 03:52:00,
2013-03-10 22:02:00,39.0,24.0,-100.00,ENE,76,10.0,28.0,54,-99.99,,,0.00,0.120000,,2013-03-11 04:02:00,
2013-03-10 22:12:00,39.0,24.0,-100.00,ENE,76,10.0,28.0,54,-99.99,,,0.00,0.120000,,2013-03-11 04:12:00,
2013-03-10 22:32:00,34.0,29.0,-100.00,ENE,64,8.0,15.0,81,-99.99,,,0.00,0.120000,,2013-03-11 04:32:00,
2013-03-10 22:42:00,34.0,29.0,-100.00,ENE,64,8.0,15.0,81,-99.99,,,0.00,0.120000,,2013-03-11 04:42:00,
2013-03-10 22:53:00,34.0,29.0,-100.00,ENE,64,8.0,15.0,81,-99.99,,,0.00,0.120000,,2013-03-11 04:53:00,
2013-03-10 23:03:00,34.0,29.0,-100.00,ENE,64,8.0,15.0,81,-99.99,,,0.00,0.120000,,2013-03-11 05:03:00,
2013-03-10 23:11:00,34.0,29.0,-100.00,ENE,64,8.0,15.0,81,-99.99,,,0.00,0.120000,,2013-03-11 05:11:00,
2013-03-10 23:32:00,32.0,29.0,-100.00,East,79,9.0,14.0,88,-99.99,,,-99.99,0.120000,,2013-03-11 05:32:00,
2013-03-10 23:42:00,32.0,29.0,-100.00,East,79,9.0,14.0,88,-99.99,,,-99.99,0.120000,,2013-03-11 05:42:00,
2013-03-10 23:52:00,32.0,29.0,-100.00,East,79,9.0,14.0,88,-99.99,,,-99.99,0.120000,,2013-03-11 05:52:00,